createdAt,value
2022-10-05T00:01:33.928Z,18.70
2022-10-05T00:04:16.587Z,18.80
2022-10-05T00:06:49.389Z,18.80
2022-10-05T00:09:21.800Z,18.90
2022-10-05T00:11:54.369Z,18.70
2022-10-05T00:14:30.952Z,18.80
2022-10-05T00:17:02.779Z,18.80
2022-10-05T00:19:38.369Z,18.80
2022-10-05T00:22:16.177Z,18.60
2022-10-05T00:24:47.990Z,18.60
2022-10-05T00:27:21.611Z,18.40
2022-10-05T00:29:54.553Z,18.30
2022-10-05T00:32:25.689Z,18.30
2022-10-05T00:35:01.800Z,18.20
2022-10-05T00:37:33.049Z,18.20
2022-10-05T00:40:04.385Z,18.10
2022-10-05T00:42:44.923Z,18.00
2022-10-05T00:45:20.062Z,17.80
2022-10-05T00:48:04.924Z,17.80
2022-10-05T00:51:03.496Z,17.60
2022-10-05T00:53:46.237Z,17.50
2022-10-05T00:56:27.691Z,17.50
2022-10-05T00:59:12.085Z,17.40
2022-10-05T01:01:48.423Z,17.40
2022-10-05T01:04:24.581Z,17.30
2022-10-05T01:07:10.044Z,17.30
2022-10-05T01:09:49.542Z,17.20
2022-10-05T01:12:29.937Z,17.10
2022-10-05T01:15:08.759Z,17.10
2022-10-05T01:17:48.114Z,17.10
2022-10-05T01:20:53.035Z,17.00
2022-10-05T01:23:53.068Z,16.90
2022-10-05T01:26:41.263Z,16.70
2022-10-05T01:29:20.457Z,16.60
2022-10-05T01:31:59.105Z,16.60
2022-10-05T01:34:40.414Z,16.50
2022-10-05T01:37:20.289Z,16.40
2022-10-05T01:40:00.036Z,16.30
2022-10-05T01:42:40.728Z,16.20
2022-10-05T01:45:22.205Z,16.20
2022-10-05T01:47:54.927Z,16.10
2022-10-05T01:50:36.149Z,16.00
2022-10-05T01:53:22.415Z,15.90
2022-10-05T01:55:59.876Z,15.90
2022-10-05T01:58:40.313Z,15.80
2022-10-05T02:01:19.980Z,15.80
2022-10-05T02:03:55.908Z,15.70
2022-10-05T02:06:29.657Z,15.70
2022-10-05T02:09:19.478Z,15.60
2022-10-05T02:11:56.483Z,15.60
2022-10-05T02:14:33.742Z,15.50
2022-10-05T02:17:17.506Z,15.40
2022-10-05T02:19:52.202Z,15.30
2022-10-05T02:22:32.325Z,15.30
2022-10-05T02:25:07.446Z,15.20
2022-10-05T02:28:08.082Z,15.10
2022-10-05T02:30:52.142Z,15.10
2022-10-05T02:33:44.652Z,15.10
2022-10-05T02:36:24.234Z,15.00
2022-10-05T02:39:16.392Z,15.00
2022-10-05T02:41:56.927Z,14.90
2022-10-05T02:44:41.449Z,14.90
2022-10-05T02:47:24.175Z,14.90
2022-10-05T02:50:04.061Z,15.00
2022-10-05T02:52:44.821Z,15.00
2022-10-05T02:55:24.356Z,14.90
2022-10-05T02:58:06.854Z,14.80
2022-10-05T03:00:45.199Z,14.80
2022-10-05T03:03:25.639Z,14.70
2022-10-05T03:06:05.056Z,14.60
2022-10-05T03:08:48.581Z,14.50
2022-10-05T03:11:29.015Z,14.50
2022-10-05T03:27:02.757Z,14.20
2022-10-05T03:30:01.795Z,14.20
2022-10-05T03:32:49.590Z,14.10
2022-10-05T03:35:39.515Z,14.10
2022-10-05T03:38:47.438Z,14.10
2022-10-05T03:41:30.633Z,14.10
2022-10-05T03:44:20.625Z,14.10
2022-10-05T03:47:18.073Z,14.20
2022-10-05T03:50:17.108Z,14.10
2022-10-05T03:52:53.649Z,14.00
2022-10-05T03:55:32.260Z,13.90
2022-10-05T03:58:15.389Z,13.90
2022-10-05T04:04:19.402Z,13.80
2022-10-05T04:07:08.364Z,13.80
2022-10-05T04:09:48.265Z,13.70
2022-10-05T04:26:03.755Z,13.60
2022-10-05T04:29:02.484Z,13.70
2022-10-05T04:35:57.054Z,13.60
2022-10-05T04:38:58.978Z,13.50
2022-10-05T04:41:58.177Z,13.50
2022-10-05T04:45:10.388Z,13.40
2022-10-05T04:48:29.291Z,13.40
2022-10-05T04:51:17.031Z,13.40
2022-10-05T04:54:04.230Z,13.40
2022-10-05T04:56:48.657Z,13.30
2022-10-05T05:02:10.913Z,13.30
2022-10-05T05:05:14.485Z,13.30
2022-10-05T05:08:25.218Z,13.20
2022-10-05T05:11:35.172Z,13.10
2022-10-05T05:48:12.648Z,12.80
2022-10-05T05:51:07.815Z,12.80
2022-10-05T05:53:48.808Z,12.80
2022-10-05T07:32:23.009Z,14.30
2022-10-05T07:35:17.172Z,14.40
2022-10-05T08:10:53.150Z,14.50
2022-10-05T08:13:38.080Z,14.40
2022-10-05T08:16:17.022Z,14.50
2022-10-05T08:19:05.019Z,14.50
2022-10-05T08:21:52.353Z,14.50
2022-10-05T08:24:51.633Z,14.50
2022-10-05T09:17:22.106Z,14.20
2022-10-05T09:20:35.007Z,14.20
2022-10-05T09:23:26.916Z,14.20
2022-10-05T09:27:08.916Z,14.20
2022-10-05T14:41:50.129Z,14.30
2022-10-05T14:53:21.578Z,14.30
2022-10-05T16:17:19.678Z,14.90
2022-10-05T16:44:24.099Z,14.90
2022-10-05T16:47:03.796Z,14.90
2022-10-05T16:49:50.426Z,14.90
2022-10-05T16:52:29.825Z,14.90
2022-10-05T16:55:09.109Z,15.00
2022-10-05T16:57:44.778Z,15.00
2022-10-05T17:00:28.174Z,15.10
2022-10-05T17:03:23.848Z,15.20
2022-10-05T17:06:28.682Z,15.20
2022-10-05T18:41:04.812Z,15.70
2022-10-05T18:47:27.030Z,15.60
2022-10-05T18:50:22.919Z,15.70
2022-10-05T18:59:44.939Z,15.70
2022-10-05T19:02:31.131Z,15.80
2022-10-05T19:05:48.799Z,15.90
2022-10-05T19:08:34.041Z,15.70
2022-10-05T19:11:26.757Z,15.70
2022-10-05T19:14:13.004Z,15.80
2022-10-05T19:25:14.144Z,16.00
2022-10-05T19:28:00.430Z,16.00
2022-10-05T19:30:49.328Z,16.00
2022-10-05T19:33:37.790Z,16.00
2022-10-05T19:39:35.463Z,16.10
2022-10-05T19:42:29.317Z,16.10
2022-10-05T19:45:21.859Z,16.20
2022-10-05T19:50:40.018Z,16.20
2022-10-05T19:53:21.977Z,16.20
2022-10-05T19:56:08.967Z,16.30
2022-10-05T19:58:45.983Z,16.30
2022-10-05T20:01:34.764Z,16.30
2022-10-05T20:04:10.859Z,16.30
2022-10-05T20:06:50.996Z,16.20
2022-10-05T20:09:27.930Z,16.10
2022-10-05T20:12:09.225Z,16.20
2022-10-05T20:20:27.623Z,16.30
2022-10-05T20:23:29.451Z,16.30
2022-10-05T20:26:18.868Z,16.40
2022-10-05T20:28:52.401Z,16.40
2022-10-05T20:31:39.471Z,16.30
2022-10-05T20:34:18.449Z,16.40
2022-10-05T20:36:57.093Z,16.40
2022-10-05T20:39:35.948Z,16.40
2022-10-05T20:42:09.317Z,16.40
2022-10-05T20:44:49.939Z,16.30
2022-10-05T20:47:31.486Z,16.50
2022-10-05T20:50:09.651Z,16.40
2022-10-05T20:55:35.651Z,16.30
2022-10-05T20:58:09.832Z,16.40
2022-10-05T21:01:00.700Z,16.40
2022-10-05T21:03:32.223Z,16.50
2022-10-05T21:06:03.248Z,16.50
2022-10-05T21:08:35.830Z,16.50
2022-10-05T21:11:10.744Z,16.40
2022-10-05T21:13:46.375Z,16.40
2022-10-05T21:16:19.368Z,16.50
2022-10-05T21:18:51.531Z,16.50
2022-10-05T21:21:22.815Z,16.50
2022-10-05T21:23:53.852Z,16.60
2022-10-05T21:26:28.597Z,16.70
2022-10-05T21:29:01.109Z,16.80
2022-10-05T21:31:33.864Z,16.80
2022-10-05T21:34:05.531Z,16.80
2022-10-05T21:36:36.692Z,16.80
2022-10-05T21:39:07.881Z,16.70
2022-10-05T21:41:41.639Z,16.70
2022-10-05T21:44:14.922Z,16.70
2022-10-05T21:46:46.863Z,16.70
2022-10-05T21:49:19.835Z,16.80
2022-10-05T21:51:51.702Z,16.80
2022-10-05T21:54:25.926Z,16.80
2022-10-05T21:57:01.465Z,16.80
2022-10-05T21:59:37.884Z,16.80
2022-10-05T22:02:08.899Z,16.70
2022-10-05T22:04:40.651Z,16.70
2022-10-05T22:07:20.886Z,16.80
2022-10-05T22:09:52.164Z,16.80
2022-10-05T22:12:27.382Z,16.90
2022-10-05T22:14:58.801Z,16.90
2022-10-05T22:17:32.748Z,16.80
2022-10-05T22:20:04.473Z,16.90
2022-10-05T22:22:36.044Z,16.90
2022-10-05T22:25:08.134Z,16.80
2022-10-05T22:27:43.885Z,16.90
2022-10-05T22:30:16.739Z,17.00
2022-10-05T22:32:48.093Z,17.10
2022-10-05T22:35:19.116Z,17.30
2022-10-05T22:37:51.388Z,17.30
2022-10-05T22:40:23.216Z,17.50
2022-10-05T22:42:57.679Z,17.70
2022-10-05T22:45:32.561Z,17.90
2022-10-05T22:48:04.746Z,18.00
2022-10-05T22:50:36.733Z,18.30
2022-10-05T22:53:08.046Z,18.60
2022-10-05T22:55:39.081Z,18.80
2022-10-05T22:58:12.223Z,18.90
2022-10-05T23:00:59.193Z,18.60
2022-10-05T23:03:32.556Z,18.70
2022-10-05T23:06:05.352Z,18.60
2022-10-05T23:08:37.915Z,18.50
2022-10-05T23:11:13.547Z,18.40
2022-10-05T23:13:47.540Z,18.40
2022-10-05T23:16:21.183Z,18.30
2022-10-05T23:18:52.921Z,18.20
2022-10-05T23:21:25.573Z,17.90
2022-10-05T23:23:56.733Z,17.90
2022-10-05T23:26:28.651Z,17.90
2022-10-05T23:29:03.051Z,18.00
2022-10-05T23:31:37.887Z,18.10
2022-10-05T23:34:08.921Z,18.10
2022-10-05T23:36:40.117Z,18.00
2022-10-05T23:39:13.030Z,18.00
2022-10-05T23:41:44.739Z,17.80
2022-10-05T23:44:18.601Z,17.90
2022-10-05T23:46:50.036Z,17.70
2022-10-05T23:49:21.905Z,17.60
2022-10-05T23:51:53.151Z,17.60
2022-10-05T23:54:24.484Z,17.60
2022-10-05T23:56:56.290Z,17.80
2022-10-05T23:59:29.919Z,17.70
